sensor_id;sensor_type;location;lat;lon;timestamp;temperature;humidity
67273;DHT22;54190;49.770;9.250;2023-04-25T00:01:15;9.10;99.90
67273;DHT22;54190;49.770;9.250;2023-04-25T00:03:40;9.00;99.90
67273;DHT22;54190;49.770;9.250;2023-04-25T00:06:06;9.10;99.90
67273;DHT22;54190;49.770;9.250;2023-04-25T00:08:33;9.10;99.90
67273;DHT22;54190;49.770;9.250;2023-04-25T00:10:59;9.10;99.90
67273;DHT22;54190;49.770;9.250;2023-04-25T00:13:25;9.00;99.90
67273;DHT22;54190;49.770;9.250;2023-04-25T00:15:52;8.90;99.90
67273;DHT22;54190;49.770;9.250;2023-04-25T00:18:25;8.90;99.90
67273;DHT22;54190;49.770;9.250;2023-04-25T00:20:54;8.80;99.90
67273;DHT22;54190;49.770;9.250;2023-04-25T00:23:20;8.70;99.90
67273;DHT22;54190;49.770;9.250;2023-04-25T00:25:50;8.60;99.90
67273;DHT22;54190;49.770;9.250;2023-04-25T00:28:16;8.40;99.90
67273;DHT22;54190;49.770;9.250;2023-04-25T00:30:42;8.30;99.90
67273;DHT22;54190;49.770;9.250;2023-04-25T00:33:09;8.30;99.90
67273;DHT22;54190;49.770;9.250;2023-04-25T00:35:36;8.30;99.90
67273;DHT22;54190;49.770;9.250;2023-04-25T00:38:02;8.20;99.90
67273;DHT22;54190;49.770;9.250;2023-04-25T00:40:28;8.20;99.90
67273;DHT22;54190;49.770;9.250;2023-04-25T00:42:54;8.30;99.90
67273;DHT22;54190;49.770;9.250;2023-04-25T00:45:20;8.30;99.90
67273;DHT22;54190;49.770;9.250;2023-04-25T00:47:46;8.30;99.90
67273;DHT22;54190;49.770;9.250;2023-04-25T00:50:13;8.30;99.90
67273;DHT22;54190;49.770;9.250;2023-04-25T00:52:40;8.20;99.90
67273;DHT22;54190;49.770;9.250;2023-04-25T00:55:09;8.20;99.90
67273;DHT22;54190;49.770;9.250;2023-04-25T00:57:35;8.20;99.90
67273;DHT22;54190;49.770;9.250;2023-04-25T01:00:03;8.20;99.90
67273;DHT22;54190;49.770;9.250;2023-04-25T01:02:30;8.10;99.90
67273;DHT22;54190;49.770;9.250;2023-04-25T01:04:57;8.10;99.90
67273;DHT22;54190;49.770;9.250;2023-04-25T01:07:23;8.10;99.90
67273;DHT22;54190;49.770;9.250;2023-04-25T01:09:51;8.10;99.90
67273;DHT22;54190;49.770;9.250;2023-04-25T01:12:17;8.00;99.90
67273;DHT22;54190;49.770;9.250;2023-04-25T01:14:43;8.10;99.90
67273;DHT22;54190;49.770;9.250;2023-04-25T01:17:10;8.00;99.90
67273;DHT22;54190;49.770;9.250;2023-04-25T01:19:36;8.00;99.90
67273;DHT22;54190;49.770;9.250;2023-04-25T01:22:02;8.00;99.90
67273;DHT22;54190;49.770;9.250;2023-04-25T01:24:32;8.00;99.90
67273;DHT22;54190;49.770;9.250;2023-04-25T01:26:59;7.90;99.90
67273;DHT22;54190;49.770;9.250;2023-04-25T01:29:27;7.90;99.90
67273;DHT22;54190;49.770;9.250;2023-04-25T01:31:53;7.90;99.90
67273;DHT22;54190;49.770;9.250;2023-04-25T01:34:19;7.90;99.90
67273;DHT22;54190;49.770;9.250;2023-04-25T01:36:48;8.00;99.90
67273;DHT22;54190;49.770;9.250;2023-04-25T01:39:15;8.00;99.90
67273;DHT22;54190;49.770;9.250;2023-04-25T01:41:41;7.90;99.90
67273;DHT22;54190;49.770;9.250;2023-04-25T01:44:07;7.90;99.90
67273;DHT22;54190;49.770;9.250;2023-04-25T01:46:33;7.90;99.90
67273;DHT22;54190;49.770;9.250;2023-04-25T01:48:59;7.90;99.90
67273;DHT22;54190;49.770;9.250;2023-04-25T01:51:25;7.90;99.90
67273;DHT22;54190;49.770;9.250;2023-04-25T01:53:51;7.90;99.90
67273;DHT22;54190;49.770;9.250;2023-04-25T01:56:18;8.00;99.90
67273;DHT22;54190;49.770;9.250;2023-04-25T01:58:43;8.00;99.90
67273;DHT22;54190;49.770;9.250;2023-04-25T02:01:18;8.00;99.90
67273;DHT22;54190;49.770;9.250;2023-04-25T02:03:53;8.10;99.90
67273;DHT22;54190;49.770;9.250;2023-04-25T02:06:25;8.10;99.90
67273;DHT22;54190;49.770;9.250;2023-04-25T02:08:53;8.10;99.90
67273;DHT22;54190;49.770;9.250;2023-04-25T02:11:18;8.10;99.90
67273;DHT22;54190;49.770;9.250;2023-04-25T02:13:52;8.20;99.90
67273;DHT22;54190;49.770;9.250;2023-04-25T02:16:39;8.20;99.90
67273;DHT22;54190;49.770;9.250;2023-04-25T02:19:06;8.20;99.90
67273;DHT22;54190;49.770;9.250;2023-04-25T02:21:32;8.20;99.90
67273;DHT22;54190;49.770;9.250;2023-04-25T02:23:58;8.20;99.90
67273;DHT22;54190;49.770;9.250;2023-04-25T02:26:24;8.20;99.90
67273;DHT22;54190;49.770;9.250;2023-04-25T02:28:50;8.20;99.90
67273;DHT22;54190;49.770;9.250;2023-04-25T02:31:18;8.20;99.90
67273;DHT22;54190;49.770;9.250;2023-04-25T02:33:44;8.20;99.90
67273;DHT22;54190;49.770;9.250;2023-04-25T02:36:10;8.20;99.90
67273;DHT22;54190;49.770;9.250;2023-04-25T02:38:35;8.10;99.90
67273;DHT22;54190;49.770;9.250;2023-04-25T02:41:04;8.10;99.90
67273;DHT22;54190;49.770;9.250;2023-04-25T02:43:29;8.10;99.90
67273;DHT22;54190;49.770;9.250;2023-04-25T02:45:55;8.10;99.90
67273;DHT22;54190;49.770;9.250;2023-04-25T02:48:21;8.10;99.90
67273;DHT22;54190;49.770;9.250;2023-04-25T02:50:48;8.00;99.90
67273;DHT22;54190;49.770;9.250;2023-04-25T02:53:13;7.90;99.90
67273;DHT22;54190;49.770;9.250;2023-04-25T02:55:44;7.90;99.90
67273;DHT22;54190;49.770;9.250;2023-04-25T02:58:10;7.90;99.90
67273;DHT22;54190;49.770;9.250;2023-04-25T03:00:43;7.90;99.90
67273;DHT22;54190;49.770;9.250;2023-04-25T03:03:09;7.80;99.90
67273;DHT22;54190;49.770;9.250;2023-04-25T03:05:34;7.80;99.90
67273;DHT22;54190;49.770;9.250;2023-04-25T03:08:00;7.70;99.90
67273;DHT22;54190;49.770;9.250;2023-04-25T03:10:27;7.60;99.90
67273;DHT22;54190;49.770;9.250;2023-04-25T03:12:53;7.50;99.90
67273;DHT22;54190;49.770;9.250;2023-04-25T03:15:19;7.50;99.90
67273;DHT22;54190;49.770;9.250;2023-04-25T03:17:45;7.50;99.90
67273;DHT22;54190;49.770;9.250;2023-04-25T03:20:11;7.50;99.90
67273;DHT22;54190;49.770;9.250;2023-04-25T03:22:37;7.60;99.90
67273;DHT22;54190;49.770;9.250;2023-04-25T03:25:03;7.60;99.90
67273;DHT22;54190;49.770;9.250;2023-04-25T03:27:29;7.70;99.90
67273;DHT22;54190;49.770;9.250;2023-04-25T03:29:54;7.70;99.90
67273;DHT22;54190;49.770;9.250;2023-04-25T03:32:20;7.70;99.90
67273;DHT22;54190;49.770;9.250;2023-04-25T03:34:46;7.70;99.90
67273;DHT22;54190;49.770;9.250;2023-04-25T03:37:11;7.70;99.90
67273;DHT22;54190;49.770;9.250;2023-04-25T03:39:37;7.70;99.90
67273;DHT22;54190;49.770;9.250;2023-04-25T03:42:04;7.70;99.90
67273;DHT22;54190;49.770;9.250;2023-04-25T03:44:30;7.70;99.90
67273;DHT22;54190;49.770;9.250;2023-04-25T03:46:56;7.70;99.90
67273;DHT22;54190;49.770;9.250;2023-04-25T03:49:22;7.60;99.90
67273;DHT22;54190;49.770;9.250;2023-04-25T03:51:59;7.70;99.90
67273;DHT22;54190;49.770;9.250;2023-04-25T03:54:27;7.70;99.90
67273;DHT22;54190;49.770;9.250;2023-04-25T03:56:57;7.80;99.90
67273;DHT22;54190;49.770;9.250;2023-04-25T03:59:26;7.80;99.90
67273;DHT22;54190;49.770;9.250;2023-04-25T04:01:52;7.90;99.90
67273;DHT22;54190;49.770;9.250;2023-04-25T04:04:18;7.90;99.90
67273;DHT22;54190;49.770;9.250;2023-04-25T04:06:44;7.90;99.90
67273;DHT22;54190;49.770;9.250;2023-04-25T04:09:21;7.80;99.90
67273;DHT22;54190;49.770;9.250;2023-04-25T04:11:47;7.80;99.90
67273;DHT22;54190;49.770;9.250;2023-04-25T04:14:12;7.80;99.90
67273;DHT22;54190;49.770;9.250;2023-04-25T04:16:42;7.80;99.90
67273;DHT22;54190;49.770;9.250;2023-04-25T04:19:08;7.80;99.90
67273;DHT22;54190;49.770;9.250;2023-04-25T04:21:35;7.80;99.90
67273;DHT22;54190;49.770;9.250;2023-04-25T04:24:02;7.80;99.90
67273;DHT22;54190;49.770;9.250;2023-04-25T04:26:32;7.80;99.90
67273;DHT22;54190;49.770;9.250;2023-04-25T04:29:07;7.80;99.90
67273;DHT22;54190;49.770;9.250;2023-04-25T04:31:48;7.80;99.90
67273;DHT22;54190;49.770;9.250;2023-04-25T04:34:14;7.80;99.90
67273;DHT22;54190;49.770;9.250;2023-04-25T04:36:42;7.80;99.90
67273;DHT22;54190;49.770;9.250;2023-04-25T04:39:07;7.90;99.90
67273;DHT22;54190;49.770;9.250;2023-04-25T04:41:38;7.80;99.90
67273;DHT22;54190;49.770;9.250;2023-04-25T04:44:27;7.80;99.90
67273;DHT22;54190;49.770;9.250;2023-04-25T04:47:12;7.80;99.90
67273;DHT22;54190;49.770;9.250;2023-04-25T04:49:59;7.80;99.90
67273;DHT22;54190;49.770;9.250;2023-04-25T04:52:31;7.90;99.90
67273;DHT22;54190;49.770;9.250;2023-04-25T04:55:31;7.90;99.90
67273;DHT22;54190;49.770;9.250;2023-04-25T04:58:15;7.90;99.90
67273;DHT22;54190;49.770;9.250;2023-04-25T05:00:49;7.90;99.90
67273;DHT22;54190;49.770;9.250;2023-04-25T05:03:33;7.90;99.90
67273;DHT22;54190;49.770;9.250;2023-04-25T05:06:11;7.90;99.90
67273;DHT22;54190;49.770;9.250;2023-04-25T05:08:57;7.90;99.90
67273;DHT22;54190;49.770;9.250;2023-04-25T05:11:48;8.00;99.90
67273;DHT22;54190;49.770;9.250;2023-04-25T05:14:26;8.00;99.90
67273;DHT22;54190;49.770;9.250;2023-04-25T05:17:27;8.00;99.90
67273;DHT22;54190;49.770;9.250;2023-04-25T05:20:09;8.00;99.90
67273;DHT22;54190;49.770;9.250;2023-04-25T05:22:53;8.00;99.90
67273;DHT22;54190;49.770;9.250;2023-04-25T05:25:30;8.00;99.90
67273;DHT22;54190;49.770;9.250;2023-04-25T05:28:06;8.00;99.90
67273;DHT22;54190;49.770;9.250;2023-04-25T05:30:56;8.00;99.90
67273;DHT22;54190;49.770;9.250;2023-04-25T05:33:41;7.90;99.90
67273;DHT22;54190;49.770;9.250;2023-04-25T05:36:07;7.90;99.90
67273;DHT22;54190;49.770;9.250;2023-04-25T05:38:33;7.90;99.90
67273;DHT22;54190;49.770;9.250;2023-04-25T05:41:19;7.90;99.90
67273;DHT22;54190;49.770;9.250;2023-04-25T05:43:50;7.80;99.90
67273;DHT22;54190;49.770;9.250;2023-04-25T05:46:26;7.80;99.90
67273;DHT22;54190;49.770;9.250;2023-04-25T05:49:26;7.80;99.90
67273;DHT22;54190;49.770;9.250;2023-04-25T05:52:04;7.80;99.90
67273;DHT22;54190;49.770;9.250;2023-04-25T05:54:33;7.80;99.90
67273;DHT22;54190;49.770;9.250;2023-04-25T05:56:59;7.90;99.90
67273;DHT22;54190;49.770;9.250;2023-04-25T05:59:24;7.80;99.90
67273;DHT22;54190;49.770;9.250;2023-04-25T06:01:50;7.80;99.90
67273;DHT22;54190;49.770;9.250;2023-04-25T06:04:17;7.80;99.90
67273;DHT22;54190;49.770;9.250;2023-04-25T06:06:43;7.80;99.90
67273;DHT22;54190;49.770;9.250;2023-04-25T06:09:08;7.70;99.90
67273;DHT22;54190;49.770;9.250;2023-04-25T06:11:34;7.80;99.90
67273;DHT22;54190;49.770;9.250;2023-04-25T06:14:00;7.80;99.90
67273;DHT22;54190;49.770;9.250;2023-04-25T06:16:26;7.80;99.90
67273;DHT22;54190;49.770;9.250;2023-04-25T06:18:52;7.80;99.90
67273;DHT22;54190;49.770;9.250;2023-04-25T06:21:18;7.80;99.90
67273;DHT22;54190;49.770;9.250;2023-04-25T06:23:43;7.30;99.90
67273;DHT22;54190;49.770;9.250;2023-04-25T06:26:12;7.20;99.90
67273;DHT22;54190;49.770;9.250;2023-04-25T06:28:40;7.20;99.90
67273;DHT22;54190;49.770;9.250;2023-04-25T06:31:06;7.10;99.90
67273;DHT22;54190;49.770;9.250;2023-04-25T06:33:31;7.10;99.90
67273;DHT22;54190;49.770;9.250;2023-04-25T06:35:57;7.10;99.90
67273;DHT22;54190;49.770;9.250;2023-04-25T06:38:25;7.00;99.90
67273;DHT22;54190;49.770;9.250;2023-04-25T06:40:52;7.10;99.90
67273;DHT22;54190;49.770;9.250;2023-04-25T06:43:18;7.00;99.90
67273;DHT22;54190;49.770;9.250;2023-04-25T06:46:02;7.00;99.90
67273;DHT22;54190;49.770;9.250;2023-04-25T06:48:30;6.90;99.90
67273;DHT22;54190;49.770;9.250;2023-04-25T06:50:57;6.90;99.90
67273;DHT22;54190;49.770;9.250;2023-04-25T06:53:23;6.90;99.90
67273;DHT22;54190;49.770;9.250;2023-04-25T06:55:55;6.90;99.90
67273;DHT22;54190;49.770;9.250;2023-04-25T06:58:22;7.00;99.90
67273;DHT22;54190;49.770;9.250;2023-04-25T07:00:50;6.90;99.90
67273;DHT22;54190;49.770;9.250;2023-04-25T07:03:17;6.90;99.90
67273;DHT22;54190;49.770;9.250;2023-04-25T07:05:43;6.90;99.90
67273;DHT22;54190;49.770;9.250;2023-04-25T07:08:11;6.90;99.90
67273;DHT22;54190;49.770;9.250;2023-04-25T07:10:37;7.00;99.90
67273;DHT22;54190;49.770;9.250;2023-04-25T07:13:03;7.10;99.90
67273;DHT22;54190;49.770;9.250;2023-04-25T07:15:29;7.20;99.90
67273;DHT22;54190;49.770;9.250;2023-04-25T07:17:55;7.20;99.90
67273;DHT22;54190;49.770;9.250;2023-04-25T07:20:21;7.30;99.90
67273;DHT22;54190;49.770;9.250;2023-04-25T07:22:47;7.30;99.90
67273;DHT22;54190;49.770;9.250;2023-04-25T07:25:13;7.30;99.90
67273;DHT22;54190;49.770;9.250;2023-04-25T07:27:38;7.40;99.90
67273;DHT22;54190;49.770;9.250;2023-04-25T07:30:16;7.50;99.90
67273;DHT22;54190;49.770;9.250;2023-04-25T07:32:42;7.60;99.90
67273;DHT22;54190;49.770;9.250;2023-04-25T07:35:08;7.50;99.90
67273;DHT22;54190;49.770;9.250;2023-04-25T07:37:35;7.60;99.90
67273;DHT22;54190;49.770;9.250;2023-04-25T07:40:10;7.80;99.90
67273;DHT22;54190;49.770;9.250;2023-04-25T07:42:39;7.80;99.90
67273;DHT22;54190;49.770;9.250;2023-04-25T07:45:06;7.90;99.90
67273;DHT22;54190;49.770;9.250;2023-04-25T07:47:32;8.10;99.90
67273;DHT22;54190;49.770;9.250;2023-04-25T07:49:57;8.10;99.90
67273;DHT22;54190;49.770;9.250;2023-04-25T07:52:23;8.10;99.90
67273;DHT22;54190;49.770;9.250;2023-04-25T07:54:55;8.00;99.90
67273;DHT22;54190;49.770;9.250;2023-04-25T07:57:28;8.00;99.90
67273;DHT22;54190;49.770;9.250;2023-04-25T07:59:56;8.20;99.90
67273;DHT22;54190;49.770;9.250;2023-04-25T08:02:22;8.30;99.90
67273;DHT22;54190;49.770;9.250;2023-04-25T08:04:48;8.50;99.90
67273;DHT22;54190;49.770;9.250;2023-04-25T08:07:16;8.60;99.90
67273;DHT22;54190;49.770;9.250;2023-04-25T08:09:49;8.50;99.90
67273;DHT22;54190;49.770;9.250;2023-04-25T08:12:24;8.60;99.90
67273;DHT22;54190;49.770;9.250;2023-04-25T08:14:50;8.60;99.90
67273;DHT22;54190;49.770;9.250;2023-04-25T08:17:16;8.60;99.90
67273;DHT22;54190;49.770;9.250;2023-04-25T08:19:42;8.50;99.90
67273;DHT22;54190;49.770;9.250;2023-04-25T08:22:15;8.60;99.90
67273;DHT22;54190;49.770;9.250;2023-04-25T08:24:50;8.70;99.90
67273;DHT22;54190;49.770;9.250;2023-04-25T08:27:18;8.70;99.90
67273;DHT22;54190;49.770;9.250;2023-04-25T08:29:43;8.80;99.90
67273;DHT22;54190;49.770;9.250;2023-04-25T08:32:09;8.60;99.90
67273;DHT22;54190;49.770;9.250;2023-04-25T08:34:39;8.60;99.90
67273;DHT22;54190;49.770;9.250;2023-04-25T08:37:09;8.70;99.90
67273;DHT22;54190;49.770;9.250;2023-04-25T08:39:44;8.70;99.90
67273;DHT22;54190;49.770;9.250;2023-04-25T08:42:36;8.70;99.90
67273;DHT22;54190;49.770;9.250;2023-04-25T08:45:03;8.60;99.90
67273;DHT22;54190;49.770;9.250;2023-04-25T08:47:33;8.60;99.90
67273;DHT22;54190;49.770;9.250;2023-04-25T08:50:02;8.50;99.90
67273;DHT22;54190;49.770;9.250;2023-04-25T08:52:35;8.40;99.90
67273;DHT22;54190;49.770;9.250;2023-04-25T08:55:01;8.50;99.90
67273;DHT22;54190;49.770;9.250;2023-04-25T08:57:29;8.60;99.90
67273;DHT22;54190;49.770;9.250;2023-04-25T08:59:57;8.60;99.90
67273;DHT22;54190;49.770;9.250;2023-04-25T09:02:24;8.60;99.90
67273;DHT22;54190;49.770;9.250;2023-04-25T09:04:51;8.60;99.90
67273;DHT22;54190;49.770;9.250;2023-04-25T09:07:19;8.60;99.90
67273;DHT22;54190;49.770;9.250;2023-04-25T09:09:47;8.70;99.90
67273;DHT22;54190;49.770;9.250;2023-04-25T09:12:18;8.80;99.90
67273;DHT22;54190;49.770;9.250;2023-04-25T09:15:02;8.90;99.90
67273;DHT22;54190;49.770;9.250;2023-04-25T09:17:42;8.90;99.90
67273;DHT22;54190;49.770;9.250;2023-04-25T09:20:13;8.80;99.90
67273;DHT22;54190;49.770;9.250;2023-04-25T09:22:39;8.90;99.90
67273;DHT22;54190;49.770;9.250;2023-04-25T09:25:12;8.80;99.90
67273;DHT22;54190;49.770;9.250;2023-04-25T09:27:51;8.90;99.90
67273;DHT22;54190;49.770;9.250;2023-04-25T09:30:35;9.10;99.90
67273;DHT22;54190;49.770;9.250;2023-04-25T09:33:28;9.20;99.90
67273;DHT22;54190;49.770;9.250;2023-04-25T09:36:02;9.20;99.90
67273;DHT22;54190;49.770;9.250;2023-04-25T09:38:45;9.20;99.90
67273;DHT22;54190;49.770;9.250;2023-04-25T09:41:31;9.10;99.90
67273;DHT22;54190;49.770;9.250;2023-04-25T09:44:00;9.40;99.90
67273;DHT22;54190;49.770;9.250;2023-04-25T09:46:34;9.60;99.90
67273;DHT22;54190;49.770;9.250;2023-04-25T09:49:08;9.90;99.90
67273;DHT22;54190;49.770;9.250;2023-04-25T09:51:57;10.00;99.90
67273;DHT22;54190;49.770;9.250;2023-04-25T09:54:25;10.20;99.90
67273;DHT22;54190;49.770;9.250;2023-04-25T09:57:09;10.10;98.80
67273;DHT22;54190;49.770;9.250;2023-04-25T09:59:39;9.90;99.90
67273;DHT22;54190;49.770;9.250;2023-04-25T10:02:08;9.90;99.90
67273;DHT22;54190;49.770;9.250;2023-04-25T10:04:38;9.90;99.20
67273;DHT22;54190;49.770;9.250;2023-04-25T10:07:08;9.80;99.90
67273;DHT22;54190;49.770;9.250;2023-04-25T10:09:37;9.80;99.90
67273;DHT22;54190;49.770;9.250;2023-04-25T10:12:05;9.90;99.90
67273;DHT22;54190;49.770;9.250;2023-04-25T10:14:33;10.20;99.90
67273;DHT22;54190;49.770;9.250;2023-04-25T10:16:59;10.40;99.90
67273;DHT22;54190;49.770;9.250;2023-04-25T10:19:26;10.50;99.60
67273;DHT22;54190;49.770;9.250;2023-04-25T10:22:14;10.60;99.90
67273;DHT22;54190;49.770;9.250;2023-04-25T10:24:43;10.80;99.90
67273;DHT22;54190;49.770;9.250;2023-04-25T10:27:09;10.90;99.80
67273;DHT22;54190;49.770;9.250;2023-04-25T10:29:36;11.00;99.00
67273;DHT22;54190;49.770;9.250;2023-04-25T10:32:02;11.00;99.10
67273;DHT22;54190;49.770;9.250;2023-04-25T10:34:39;10.90;99.00
67273;DHT22;54190;49.770;9.250;2023-04-25T10:37:08;10.70;98.90
67273;DHT22;54190;49.770;9.250;2023-04-25T10:39:34;10.40;99.20
67273;DHT22;54190;49.770;9.250;2023-04-25T10:42:02;10.10;99.50
67273;DHT22;54190;49.770;9.250;2023-04-25T10:44:29;9.90;99.90
67273;DHT22;54190;49.770;9.250;2023-04-25T10:46:59;9.80;99.90
67273;DHT22;54190;49.770;9.250;2023-04-25T10:49:41;9.60;99.90
67273;DHT22;54190;49.770;9.250;2023-04-25T10:52:33;9.30;99.90
67273;DHT22;54190;49.770;9.250;2023-04-25T10:54:59;9.30;99.90
67273;DHT22;54190;49.770;9.250;2023-04-25T10:57:42;9.40;99.90
67273;DHT22;54190;49.770;9.250;2023-04-25T11:00:19;9.50;99.90
67273;DHT22;54190;49.770;9.250;2023-04-25T11:02:51;9.60;99.90
67273;DHT22;54190;49.770;9.250;2023-04-25T11:05:32;9.60;99.90
67273;DHT22;54190;49.770;9.250;2023-04-25T11:07:58;9.60;99.90
67273;DHT22;54190;49.770;9.250;2023-04-25T11:10:28;9.60;99.90
67273;DHT22;54190;49.770;9.250;2023-04-25T11:12:55;9.70;99.90
67273;DHT22;54190;49.770;9.250;2023-04-25T11:15:21;9.70;99.90
67273;DHT22;54190;49.770;9.250;2023-04-25T11:17:46;9.90;99.90
67273;DHT22;54190;49.770;9.250;2023-04-25T11:20:13;10.00;99.90
67273;DHT22;54190;49.770;9.250;2023-04-25T11:22:41;10.00;99.90
67273;DHT22;54190;49.770;9.250;2023-04-25T11:25:11;9.90;99.90
67273;DHT22;54190;49.770;9.250;2023-04-25T11:27:54;9.90;99.90
67273;DHT22;54190;49.770;9.250;2023-04-25T11:30:21;9.80;99.90
67273;DHT22;54190;49.770;9.250;2023-04-25T11:32:47;9.80;99.90
67273;DHT22;54190;49.770;9.250;2023-04-25T11:35:13;9.80;99.90
67273;DHT22;54190;49.770;9.250;2023-04-25T11:37:39;9.80;99.90
67273;DHT22;54190;49.770;9.250;2023-04-25T11:40:06;9.90;99.90
67273;DHT22;54190;49.770;9.250;2023-04-25T11:42:32;10.00;99.90
67273;DHT22;54190;49.770;9.250;2023-04-25T11:44:59;9.90;99.90
67273;DHT22;54190;49.770;9.250;2023-04-25T11:47:33;10.00;99.90
67273;DHT22;54190;49.770;9.250;2023-04-25T11:49:59;9.90;99.90
67273;DHT22;54190;49.770;9.250;2023-04-25T11:52:42;10.00;99.90
67273;DHT22;54190;49.770;9.250;2023-04-25T11:55:15;10.10;99.90
67273;DHT22;54190;49.770;9.250;2023-04-25T11:57:43;10.10;99.90
67273;DHT22;54190;49.770;9.250;2023-04-25T12:00:14;10.20;99.90
67273;DHT22;54190;49.770;9.250;2023-04-25T12:02:43;10.10;99.70
67273;DHT22;54190;49.770;9.250;2023-04-25T12:05:14;10.00;99.00
67273;DHT22;54190;49.770;9.250;2023-04-25T12:07:41;9.90;99.70
67273;DHT22;54190;49.770;9.250;2023-04-25T12:10:10;10.00;98.20
67273;DHT22;54190;49.770;9.250;2023-04-25T12:12:37;9.90;99.70
67273;DHT22;54190;49.770;9.250;2023-04-25T12:15:13;9.90;99.90
67273;DHT22;54190;49.770;9.250;2023-04-25T12:17:42;9.90;99.90
67273;DHT22;54190;49.770;9.250;2023-04-25T12:20:15;10.00;99.90
67273;DHT22;54190;49.770;9.250;2023-04-25T12:22:42;10.00;99.90
67273;DHT22;54190;49.770;9.250;2023-04-25T12:28:31;10.00;99.90
67273;DHT22;54190;49.770;9.250;2023-04-25T12:31:07;10.10;99.90
67273;DHT22;54190;49.770;9.250;2023-04-25T12:33:37;10.20;99.30
67273;DHT22;54190;49.770;9.250;2023-04-25T12:36:04;10.20;99.90
67273;DHT22;54190;49.770;9.250;2023-04-25T12:38:37;10.30;99.90
67273;DHT22;54190;49.770;9.250;2023-04-25T12:41:03;10.10;99.90
67273;DHT22;54190;49.770;9.250;2023-04-25T12:43:29;10.00;99.90
67273;DHT22;54190;49.770;9.250;2023-04-25T12:45:55;9.90;99.90
67273;DHT22;54190;49.770;9.250;2023-04-25T12:48:22;9.90;99.90
67273;DHT22;54190;49.770;9.250;2023-04-25T12:50:49;9.70;99.90
67273;DHT22;54190;49.770;9.250;2023-04-25T12:53:22;9.70;99.90
67273;DHT22;54190;49.770;9.250;2023-04-25T12:55:49;9.70;99.90
67273;DHT22;54190;49.770;9.250;2023-04-25T12:58:17;9.60;99.90
67273;DHT22;54190;49.770;9.250;2023-04-25T13:00:44;9.70;99.90
67273;DHT22;54190;49.770;9.250;2023-04-25T13:03:10;9.70;99.90
67273;DHT22;54190;49.770;9.250;2023-04-25T13:05:39;9.80;99.90
67273;DHT22;54190;49.770;9.250;2023-04-25T13:08:05;9.60;99.90
67273;DHT22;54190;49.770;9.250;2023-04-25T13:10:31;9.50;99.90
67273;DHT22;54190;49.770;9.250;2023-04-25T13:12:59;9.40;99.90
67273;DHT22;54190;49.770;9.250;2023-04-25T13:15:24;9.30;99.90
67273;DHT22;54190;49.770;9.250;2023-04-25T13:17:50;9.30;99.90
67273;DHT22;54190;49.770;9.250;2023-04-25T13:20:15;9.40;99.90
67273;DHT22;54190;49.770;9.250;2023-04-25T13:22:42;9.50;99.90
67273;DHT22;54190;49.770;9.250;2023-04-25T13:25:08;9.50;99.90
67273;DHT22;54190;49.770;9.250;2023-04-25T13:27:34;9.70;99.90
67273;DHT22;54190;49.770;9.250;2023-04-25T13:30:02;9.80;99.90
67273;DHT22;54190;49.770;9.250;2023-04-25T13:32:33;9.90;99.90
67273;DHT22;54190;49.770;9.250;2023-04-25T13:34:59;9.90;99.90
67273;DHT22;54190;49.770;9.250;2023-04-25T13:37:24;10.20;99.90
67273;DHT22;54190;49.770;9.250;2023-04-25T13:39:50;10.40;99.80
67273;DHT22;54190;49.770;9.250;2023-04-25T13:42:16;10.60;99.40
67273;DHT22;54190;49.770;9.250;2023-04-25T13:44:42;10.70;98.80
67273;DHT22;54190;49.770;9.250;2023-04-25T13:47:07;10.60;99.40
67273;DHT22;54190;49.770;9.250;2023-04-25T13:49:33;10.70;98.90
67273;DHT22;54190;49.770;9.250;2023-04-25T13:51:59;10.70;98.60
67273;DHT22;54190;49.770;9.250;2023-04-25T13:54:24;10.70;98.40
67273;DHT22;54190;49.770;9.250;2023-04-25T13:56:50;10.70;98.90
67273;DHT22;54190;49.770;9.250;2023-04-25T13:59:16;10.60;98.40
67273;DHT22;54190;49.770;9.250;2023-04-25T14:01:42;10.50;99.10
67273;DHT22;54190;49.770;9.250;2023-04-25T14:04:08;10.60;99.90
67273;DHT22;54190;49.770;9.250;2023-04-25T14:06:34;10.60;98.80
67273;DHT22;54190;49.770;9.250;2023-04-25T14:09:00;10.80;98.50
67273;DHT22;54190;49.770;9.250;2023-04-25T14:11:26;10.90;99.00
67273;DHT22;54190;49.770;9.250;2023-04-25T14:13:52;10.80;97.00
67273;DHT22;54190;49.770;9.250;2023-04-25T14:16:17;10.70;97.60
67273;DHT22;54190;49.770;9.250;2023-04-25T14:18:43;10.40;98.50
67273;DHT22;54190;49.770;9.250;2023-04-25T14:21:09;10.30;97.90
67273;DHT22;54190;49.770;9.250;2023-04-25T14:23:35;10.10;98.70
67273;DHT22;54190;49.770;9.250;2023-04-25T14:26:01;9.90;99.20
67273;DHT22;54190;49.770;9.250;2023-04-25T14:28:27;9.90;98.70
67273;DHT22;54190;49.770;9.250;2023-04-25T14:30:52;10.00;99.00
67273;DHT22;54190;49.770;9.250;2023-04-25T14:33:18;10.00;97.20
67273;DHT22;54190;49.770;9.250;2023-04-25T14:35:43;9.90;98.30
67273;DHT22;54190;49.770;9.250;2023-04-25T14:38:09;9.90;97.60
67273;DHT22;54190;49.770;9.250;2023-04-25T14:40:35;9.90;97.30
67273;DHT22;54190;49.770;9.250;2023-04-25T14:43:01;9.80;97.90
67273;DHT22;54190;49.770;9.250;2023-04-25T14:45:26;9.80;97.30
67273;DHT22;54190;49.770;9.250;2023-04-25T14:47:52;9.90;97.90
67273;DHT22;54190;49.770;9.250;2023-04-25T14:50:18;9.80;97.50
67273;DHT22;54190;49.770;9.250;2023-04-25T14:52:44;9.90;98.10
67273;DHT22;54190;49.770;9.250;2023-04-25T14:55:10;9.90;98.50
67273;DHT22;54190;49.770;9.250;2023-04-25T14:57:36;10.00;97.40
67273;DHT22;54190;49.770;9.250;2023-04-25T15:00:03;10.00;98.50
67273;DHT22;54190;49.770;9.250;2023-04-25T15:02:32;10.00;97.50
67273;DHT22;54190;49.770;9.250;2023-04-25T15:04:58;10.10;97.60
67273;DHT22;54190;49.770;9.250;2023-04-25T15:07:23;10.20;97.40
67273;DHT22;54190;49.770;9.250;2023-04-25T15:09:50;10.30;96.30
67273;DHT22;54190;49.770;9.250;2023-04-25T15:12:15;10.40;96.20
67273;DHT22;54190;49.770;9.250;2023-04-25T15:14:41;10.50;96.40
67273;DHT22;54190;49.770;9.250;2023-04-25T15:17:07;10.50;95.30
67273;DHT22;54190;49.770;9.250;2023-04-25T15:19:32;10.40;95.70
67273;DHT22;54190;49.770;9.250;2023-04-25T15:21:58;10.40;94.70
67273;DHT22;54190;49.770;9.250;2023-04-25T15:24:26;10.40;95.00
67273;DHT22;54190;49.770;9.250;2023-04-25T15:26:52;10.40;94.90
67273;DHT22;54190;49.770;9.250;2023-04-25T15:29:18;10.30;95.50
67273;DHT22;54190;49.770;9.250;2023-04-25T15:31:44;10.30;94.50
67273;DHT22;54190;49.770;9.250;2023-04-25T15:34:10;10.30;95.20
67273;DHT22;54190;49.770;9.250;2023-04-25T15:36:36;10.30;94.50
67273;DHT22;54190;49.770;9.250;2023-04-25T15:39:02;10.30;94.20
67273;DHT22;54190;49.770;9.250;2023-04-25T15:41:28;10.30;94.40
67273;DHT22;54190;49.770;9.250;2023-04-25T15:43:54;10.30;94.60
67273;DHT22;54190;49.770;9.250;2023-04-25T15:46:19;10.20;93.30
67273;DHT22;54190;49.770;9.250;2023-04-25T15:48:46;10.20;94.40
67273;DHT22;54190;49.770;9.250;2023-04-25T15:51:12;10.20;94.20
67273;DHT22;54190;49.770;9.250;2023-04-25T15:53:37;10.20;94.50
67273;DHT22;54190;49.770;9.250;2023-04-25T15:56:03;10.30;95.30
67273;DHT22;54190;49.770;9.250;2023-04-25T15:58:29;10.30;95.50